sensor_id;sensor_type;location;lat;lon;timestamp;temperature;humidity
9965;DHT22;5023;53.554;9.964;2023-05-27T00:01:44;11.80;99.90
9965;DHT22;5023;53.554;9.964;2023-05-27T00:06:47;11.80;99.90
9965;DHT22;5023;53.554;9.964;2023-05-27T00:11:49;11.70;99.90
9965;DHT22;5023;53.554;9.964;2023-05-27T00:16:52;11.70;99.90
9965;DHT22;5023;53.554;9.964;2023-05-27T00:21:55;11.60;99.90
9965;DHT22;5023;53.554;9.964;2023-05-27T00:26:57;11.50;99.90
9965;DHT22;5023;53.554;9.964;2023-05-27T00:32:01;11.60;99.90
9965;DHT22;5023;53.554;9.964;2023-05-27T00:37:04;11.50;99.90
9965;DHT22;5023;53.554;9.964;2023-05-27T00:42:07;11.40;99.90
9965;DHT22;5023;53.554;9.964;2023-05-27T00:47:10;11.30;99.90
9965;DHT22;5023;53.554;9.964;2023-05-27T00:52:14;11.20;99.90
9965;DHT22;5023;53.554;9.964;2023-05-27T00:57:16;11.20;99.90
9965;DHT22;5023;53.554;9.964;2023-05-27T01:02:19;11.20;99.90
9965;DHT22;5023;53.554;9.964;2023-05-27T01:07:29;11.20;99.90
9965;DHT22;5023;53.554;9.964;2023-05-27T01:12:37;11.10;99.90
9965;DHT22;5023;53.554;9.964;2023-05-27T01:17:45;11.00;99.90
9965;DHT22;5023;53.554;9.964;2023-05-27T01:22:50;11.00;99.90
9965;DHT22;5023;53.554;9.964;2023-05-27T01:27:53;11.00;99.90
9965;DHT22;5023;53.554;9.964;2023-05-27T01:33:01;10.90;99.90
9965;DHT22;5023;53.554;9.964;2023-05-27T01:38:10;11.00;99.90
9965;DHT22;5023;53.554;9.964;2023-05-27T01:43:13;10.80;99.90
9965;DHT22;5023;53.554;9.964;2023-05-27T01:48:15;10.70;99.90
9965;DHT22;5023;53.554;9.964;2023-05-27T01:53:20;10.70;99.90
9965;DHT22;5023;53.554;9.964;2023-05-27T01:58:21;10.50;99.90
9965;DHT22;5023;53.554;9.964;2023-05-27T02:03:23;10.50;99.90
9965;DHT22;5023;53.554;9.964;2023-05-27T02:08:28;10.30;99.90
9965;DHT22;5023;53.554;9.964;2023-05-27T02:13:31;10.20;99.90
9965;DHT22;5023;53.554;9.964;2023-05-27T02:18:34;10.20;99.90
9965;DHT22;5023;53.554;9.964;2023-05-27T02:23:37;10.10;99.90
9965;DHT22;5023;53.554;9.964;2023-05-27T02:28:39;10.20;99.90
9965;DHT22;5023;53.554;9.964;2023-05-27T02:33:41;10.40;99.90
9965;DHT22;5023;53.554;9.964;2023-05-27T02:38:44;10.30;99.90
9965;DHT22;5023;53.554;9.964;2023-05-27T02:43:46;10.30;99.90
9965;DHT22;5023;53.554;9.964;2023-05-27T02:48:48;10.40;99.90
9965;DHT22;5023;53.554;9.964;2023-05-27T02:53:52;10.30;99.90
9965;DHT22;5023;53.554;9.964;2023-05-27T02:58:54;10.20;99.90
9965;DHT22;5023;53.554;9.964;2023-05-27T03:03:55;10.20;99.90
9965;DHT22;5023;53.554;9.964;2023-05-27T03:08:59;10.10;99.90
9965;DHT22;5023;53.554;9.964;2023-05-27T03:14:01;10.10;99.90
9965;DHT22;5023;53.554;9.964;2023-05-27T03:19:03;9.80;99.90
9965;DHT22;5023;53.554;9.964;2023-05-27T03:24:07;9.80;99.90
9965;DHT22;5023;53.554;9.964;2023-05-27T03:29:09;9.90;99.90
9965;DHT22;5023;53.554;9.964;2023-05-27T03:34:11;9.80;99.90
9965;DHT22;5023;53.554;9.964;2023-05-27T03:39:14;9.80;99.90
9965;DHT22;5023;53.554;9.964;2023-05-27T03:44:17;9.90;99.90
9965;DHT22;5023;53.554;9.964;2023-05-27T03:49:18;9.80;99.90
9965;DHT22;5023;53.554;9.964;2023-05-27T03:54:22;9.80;99.90
9965;DHT22;5023;53.554;9.964;2023-05-27T03:59:24;9.90;99.90
9965;DHT22;5023;53.554;9.964;2023-05-27T04:04:25;9.80;99.90
9965;DHT22;5023;53.554;9.964;2023-05-27T04:09:29;9.80;99.90
9965;DHT22;5023;53.554;9.964;2023-05-27T04:14:31;9.70;99.90
9965;DHT22;5023;53.554;9.964;2023-05-27T04:19:32;9.70;99.90
9965;DHT22;5023;53.554;9.964;2023-05-27T04:24:36;9.70;99.90
9965;DHT22;5023;53.554;9.964;2023-05-27T04:29:39;9.70;99.90
9965;DHT22;5023;53.554;9.964;2023-05-27T04:34:43;9.60;99.90
9965;DHT22;5023;53.554;9.964;2023-05-27T04:39:46;9.70;99.90
9965;DHT22;5023;53.554;9.964;2023-05-27T04:44:49;9.80;99.90
9965;DHT22;5023;53.554;9.964;2023-05-27T04:49:51;9.90;99.90
9965;DHT22;5023;53.554;9.964;2023-05-27T04:54:54;9.90;99.90
9965;DHT22;5023;53.554;9.964;2023-05-27T04:59:57;9.90;99.90
9965;DHT22;5023;53.554;9.964;2023-05-27T05:05:19;9.90;99.90
9965;DHT22;5023;53.554;9.964;2023-05-27T05:10:22;10.00;99.90
9965;DHT22;5023;53.554;9.964;2023-05-27T05:15:24;10.20;99.90
9965;DHT22;5023;53.554;9.964;2023-05-27T05:20:26;10.20;99.90
9965;DHT22;5023;53.554;9.964;2023-05-27T05:25:29;10.20;99.90
9965;DHT22;5023;53.554;9.964;2023-05-27T05:30:35;10.20;99.90
9965;DHT22;5023;53.554;9.964;2023-05-27T05:35:37;10.30;99.90
9965;DHT22;5023;53.554;9.964;2023-05-27T05:40:40;10.40;99.90
9965;DHT22;5023;53.554;9.964;2023-05-27T05:45:49;10.50;99.90
9965;DHT22;5023;53.554;9.964;2023-05-27T05:50:50;10.60;99.90
9965;DHT22;5023;53.554;9.964;2023-05-27T05:55:54;10.70;99.90
9965;DHT22;5023;53.554;9.964;2023-05-27T06:00:56;10.90;99.90
9965;DHT22;5023;53.554;9.964;2023-05-27T06:05:57;11.00;99.90
9965;DHT22;5023;53.554;9.964;2023-05-27T06:11:01;11.00;99.90
9965;DHT22;5023;53.554;9.964;2023-05-27T06:16:03;11.20;99.90
9965;DHT22;5023;53.554;9.964;2023-05-27T06:21:05;11.30;99.90
9965;DHT22;5023;53.554;9.964;2023-05-27T06:26:09;11.50;99.90
9965;DHT22;5023;53.554;9.964;2023-05-27T06:31:10;11.80;99.90
9965;DHT22;5023;53.554;9.964;2023-05-27T06:36:12;11.90;99.90
9965;DHT22;5023;53.554;9.964;2023-05-27T06:41:16;12.20;99.90
9965;DHT22;5023;53.554;9.964;2023-05-27T06:46:17;12.40;99.90
9965;DHT22;5023;53.554;9.964;2023-05-27T06:51:20;12.60;99.90
9965;DHT22;5023;53.554;9.964;2023-05-27T06:56:25;12.70;99.90
9965;DHT22;5023;53.554;9.964;2023-05-27T07:01:27;12.80;99.90
9965;DHT22;5023;53.554;9.964;2023-05-27T07:06:29;13.00;99.90
9965;DHT22;5023;53.554;9.964;2023-05-27T07:11:32;13.00;99.90
9965;DHT22;5023;53.554;9.964;2023-05-27T07:16:34;13.30;99.90
9965;DHT22;5023;53.554;9.964;2023-05-27T07:21:36;13.40;99.90
9965;DHT22;5023;53.554;9.964;2023-05-27T07:26:40;13.50;99.90
9965;DHT22;5023;53.554;9.964;2023-05-27T07:31:42;13.70;99.90
9965;DHT22;5023;53.554;9.964;2023-05-27T07:36:43;14.00;99.90
9965;DHT22;5023;53.554;9.964;2023-05-27T07:41:47;14.20;99.90
9965;DHT22;5023;53.554;9.964;2023-05-27T07:46:49;14.50;99.90
9965;DHT22;5023;53.554;9.964;2023-05-27T07:51:51;14.60;99.90
9965;DHT22;5023;53.554;9.964;2023-05-27T07:56:54;14.90;99.90
9965;DHT22;5023;53.554;9.964;2023-05-27T08:01:58;15.00;99.90
9965;DHT22;5023;53.554;9.964;2023-05-27T08:07:00;15.10;99.90
9965;DHT22;5023;53.554;9.964;2023-05-27T08:12:04;15.20;99.90
9965;DHT22;5023;53.554;9.964;2023-05-27T08:17:07;15.50;99.90
9965;DHT22;5023;53.554;9.964;2023-05-27T08:22:09;15.80;99.90
9965;DHT22;5023;53.554;9.964;2023-05-27T08:27:13;16.10;99.90
9965;DHT22;5023;53.554;9.964;2023-05-27T08:32:16;15.90;99.90
9965;DHT22;5023;53.554;9.964;2023-05-27T08:37:18;16.00;99.90
9965;DHT22;5023;53.554;9.964;2023-05-27T08:42:21;16.00;99.90
9965;DHT22;5023;53.554;9.964;2023-05-27T08:47:23;16.10;99.90
9965;DHT22;5023;53.554;9.964;2023-05-27T08:52:27;16.20;99.90
9965;DHT22;5023;53.554;9.964;2023-05-27T08:57:32;16.40;99.90
9965;DHT22;5023;53.554;9.964;2023-05-27T09:02:36;16.60;99.90
9965;DHT22;5023;53.554;9.964;2023-05-27T09:07:38;16.50;99.90
9965;DHT22;5023;53.554;9.964;2023-05-27T09:12:44;16.60;99.90
9965;DHT22;5023;53.554;9.964;2023-05-27T09:17:46;16.80;99.90
9965;DHT22;5023;53.554;9.964;2023-05-27T09:22:48;16.90;99.90
9965;DHT22;5023;53.554;9.964;2023-05-27T09:27:52;17.10;99.90
9965;DHT22;5023;53.554;9.964;2023-05-27T09:33:01;17.40;99.90
9965;DHT22;5023;53.554;9.964;2023-05-27T09:38:06;17.30;99.90
9965;DHT22;5023;53.554;9.964;2023-05-27T09:43:13;17.40;99.90
9965;DHT22;5023;53.554;9.964;2023-05-27T09:48:18;17.60;99.90
9965;DHT22;5023;53.554;9.964;2023-05-27T09:53:20;17.80;99.90
9965;DHT22;5023;53.554;9.964;2023-05-27T09:58:25;18.00;99.90
9965;DHT22;5023;53.554;9.964;2023-05-27T10:03:27;17.90;99.90
9965;DHT22;5023;53.554;9.964;2023-05-27T10:08:29;18.00;99.90
9965;DHT22;5023;53.554;9.964;2023-05-27T10:13:33;18.20;99.90
9965;DHT22;5023;53.554;9.964;2023-05-27T10:18:42;18.20;99.90
9965;DHT22;5023;53.554;9.964;2023-05-27T10:23:52;18.40;99.90
9965;DHT22;5023;53.554;9.964;2023-05-27T10:29:06;18.30;99.90
9965;DHT22;5023;53.554;9.964;2023-05-27T10:34:09;18.20;99.90
9965;DHT22;5023;53.554;9.964;2023-05-27T10:39:13;18.30;99.90
9965;DHT22;5023;53.554;9.964;2023-05-27T10:44:27;18.40;99.90
9965;DHT22;5023;53.554;9.964;2023-05-27T10:49:33;18.50;99.90
9965;DHT22;5023;53.554;9.964;2023-05-27T10:54:37;18.70;99.90
9965;DHT22;5023;53.554;9.964;2023-05-27T10:59:47;18.80;99.90
9965;DHT22;5023;53.554;9.964;2023-05-27T11:04:50;18.90;99.90
9965;DHT22;5023;53.554;9.964;2023-05-27T11:09:53;19.00;99.90
9965;DHT22;5023;53.554;9.964;2023-05-27T11:14:57;19.20;99.90
9965;DHT22;5023;53.554;9.964;2023-05-27T11:19:59;19.50;99.90
9965;DHT22;5023;53.554;9.964;2023-05-27T11:25:06;19.80;99.90
9965;DHT22;5023;53.554;9.964;2023-05-27T11:30:12;20.40;99.30
9965;DHT22;5023;53.554;9.964;2023-05-27T11:35:15;20.40;96.30
9965;DHT22;5023;53.554;9.964;2023-05-27T11:40:17;20.70;96.80
9965;DHT22;5023;53.554;9.964;2023-05-27T11:45:22;21.20;95.20
9965;DHT22;5023;53.554;9.964;2023-05-27T11:50:25;21.40;93.50
9965;DHT22;5023;53.554;9.964;2023-05-27T11:55:30;21.50;92.60
9965;DHT22;5023;53.554;9.964;2023-05-27T12:00:34;21.90;91.00
9965;DHT22;5023;53.554;9.964;2023-05-27T12:05:36;22.30;90.70
9965;DHT22;5023;53.554;9.964;2023-05-27T12:10:38;22.70;87.30
9965;DHT22;5023;53.554;9.964;2023-05-27T12:15:41;22.60;85.10
9965;DHT22;5023;53.554;9.964;2023-05-27T12:20:43;23.00;81.80
9965;DHT22;5023;53.554;9.964;2023-05-27T12:25:46;23.10;78.90
9965;DHT22;5023;53.554;9.964;2023-05-27T12:30:49;23.60;77.80
9965;DHT22;5023;53.554;9.964;2023-05-27T12:35:53;23.40;74.80
9965;DHT22;5023;53.554;9.964;2023-05-27T12:40:55;23.80;75.10
9965;DHT22;5023;53.554;9.964;2023-05-27T12:45:58;24.60;73.50
9965;DHT22;5023;53.554;9.964;2023-05-27T12:51:00;24.90;70.70
9965;DHT22;5023;53.554;9.964;2023-05-27T12:56:03;25.20;66.40
9965;DHT22;5023;53.554;9.964;2023-05-27T13:01:07;25.40;68.10
9965;DHT22;5023;53.554;9.964;2023-05-27T13:06:08;25.20;65.20
9965;DHT22;5023;53.554;9.964;2023-05-27T13:11:11;24.90;64.20
9965;DHT22;5023;53.554;9.964;2023-05-27T13:16:14;25.50;63.40
9965;DHT22;5023;53.554;9.964;2023-05-27T13:21:16;25.90;63.40
9965;DHT22;5023;53.554;9.964;2023-05-27T13:26:18;26.10;61.60
9965;DHT22;5023;53.554;9.964;2023-05-27T13:31:26;26.30;61.50
9965;DHT22;5023;53.554;9.964;2023-05-27T13:36:28;26.40;60.00
9965;DHT22;5023;53.554;9.964;2023-05-27T13:41:30;26.60;59.90
9965;DHT22;5023;53.554;9.964;2023-05-27T13:46:34;27.10;58.90
9965;DHT22;5023;53.554;9.964;2023-05-27T13:51:42;27.30;58.00
9965;DHT22;5023;53.554;9.964;2023-05-27T13:56:44;27.40;57.10
9965;DHT22;5023;53.554;9.964;2023-05-27T14:01:48;27.20;57.00
9965;DHT22;5023;53.554;9.964;2023-05-27T14:06:55;27.30;57.00
9965;DHT22;5023;53.554;9.964;2023-05-27T14:11:56;27.60;57.30
9965;DHT22;5023;53.554;9.964;2023-05-27T14:17:00;27.60;56.90
9965;DHT22;5023;53.554;9.964;2023-05-27T14:22:02;27.80;56.70
9965;DHT22;5023;53.554;9.964;2023-05-27T14:27:04;27.70;56.00
9965;DHT22;5023;53.554;9.964;2023-05-27T14:32:08;27.80;56.00
9965;DHT22;5023;53.554;9.964;2023-05-27T14:37:10;27.50;54.70
9965;DHT22;5023;53.554;9.964;2023-05-27T14:42:12;27.20;56.60
9965;DHT22;5023;53.554;9.964;2023-05-27T14:47:15;27.70;56.50
9965;DHT22;5023;53.554;9.964;2023-05-27T14:52:18;27.60;56.00
9965;DHT22;5023;53.554;9.964;2023-05-27T14:57:19;27.60;56.00
9965;DHT22;5023;53.554;9.964;2023-05-27T15:02:23;27.30;55.10
9965;DHT22;5023;53.554;9.964;2023-05-27T15:07:25;26.80;55.60
9965;DHT22;5023;53.554;9.964;2023-05-27T15:12:37;26.50;56.30
9965;DHT22;5023;53.554;9.964;2023-05-27T15:17:44;26.40;56.40
9965;DHT22;5023;53.554;9.964;2023-05-27T15:22:46;26.10;56.90
9965;DHT22;5023;53.554;9.964;2023-05-27T15:27:48;26.00;56.90
9965;DHT22;5023;53.554;9.964;2023-05-27T15:32:52;25.90;57.20
9965;DHT22;5023;53.554;9.964;2023-05-27T15:37:54;25.30;58.10
9965;DHT22;5023;53.554;9.964;2023-05-27T15:42:56;25.10;58.80
9965;DHT22;5023;53.554;9.964;2023-05-27T15:47:59;24.40;59.60
9965;DHT22;5023;53.554;9.964;2023-05-27T15:53:01;23.90;60.40
9965;DHT22;5023;53.554;9.964;2023-05-27T15:58:03;23.80;60.90
9965;DHT22;5023;53.554;9.964;2023-05-27T16:03:07;23.80;60.90
9965;DHT22;5023;53.554;9.964;2023-05-27T16:08:09;23.70;61.30
9965;DHT22;5023;53.554;9.964;2023-05-27T16:13:13;23.80;61.80
9965;DHT22;5023;53.554;9.964;2023-05-27T16:18:16;23.50;62.40
9965;DHT22;5023;53.554;9.964;2023-05-27T16:23:19;23.30;63.40
9965;DHT22;5023;53.554;9.964;2023-05-27T16:28:22;23.30;63.60
9965;DHT22;5023;53.554;9.964;2023-05-27T16:33:25;22.80;64.20
9965;DHT22;5023;53.554;9.964;2023-05-27T16:38:29;22.50;64.70
9965;DHT22;5023;53.554;9.964;2023-05-27T16:43:31;22.50;65.00
9965;DHT22;5023;53.554;9.964;2023-05-27T16:48:35;22.10;65.90
9965;DHT22;5023;53.554;9.964;2023-05-27T16:53:37;22.00;66.30
9965;DHT22;5023;53.554;9.964;2023-05-27T16:58:39;22.10;66.30
9965;DHT22;5023;53.554;9.964;2023-05-27T17:03:42;22.00;66.80
9965;DHT22;5023;53.554;9.964;2023-05-27T17:08:44;22.10;67.50
9965;DHT22;5023;53.554;9.964;2023-05-27T17:13:46;22.10;67.80
9965;DHT22;5023;53.554;9.964;2023-05-27T17:18:50;22.00;67.90
9965;DHT22;5023;53.554;9.964;2023-05-27T17:23:52;22.00;68.70
9965;DHT22;5023;53.554;9.964;2023-05-27T17:28:54;21.90;68.50
9965;DHT22;5023;53.554;9.964;2023-05-27T17:33:57;21.80;68.90
9965;DHT22;5023;53.554;9.964;2023-05-27T17:38:59;21.70;69.00
9965;DHT22;5023;53.554;9.964;2023-05-27T17:44:01;21.60;69.60
9965;DHT22;5023;53.554;9.964;2023-05-27T17:49:04;21.60;69.60
9965;DHT22;5023;53.554;9.964;2023-05-27T17:54:08;21.50;69.90
9965;DHT22;5023;53.554;9.964;2023-05-27T17:59:10;21.50;70.10
9965;DHT22;5023;53.554;9.964;2023-05-27T18:04:13;21.30;70.50
9965;DHT22;5023;53.554;9.964;2023-05-27T18:09:15;21.40;70.80
9965;DHT22;5023;53.554;9.964;2023-05-27T18:14:17;21.30;70.90
9965;DHT22;5023;53.554;9.964;2023-05-27T18:19:20;21.20;70.80
9965;DHT22;5023;53.554;9.964;2023-05-27T18:24:22;21.10;70.70
9965;DHT22;5023;53.554;9.964;2023-05-27T18:29:25;21.10;70.80
9965;DHT22;5023;53.554;9.964;2023-05-27T18:34:28;20.90;70.90
9965;DHT22;5023;53.554;9.964;2023-05-27T18:39:30;20.90;71.20
9965;DHT22;5023;53.554;9.964;2023-05-27T18:44:32;20.80;71.20
9965;DHT22;5023;53.554;9.964;2023-05-27T18:49:35;20.70;71.50
9965;DHT22;5023;53.554;9.964;2023-05-27T18:54:37;20.60;72.10
9965;DHT22;5023;53.554;9.964;2023-05-27T18:59:39;20.60;72.10
9965;DHT22;5023;53.554;9.964;2023-05-27T19:04:43;20.50;73.10
9965;DHT22;5023;53.554;9.964;2023-05-27T19:09:45;20.40;73.30
9965;DHT22;5023;53.554;9.964;2023-05-27T19:14:50;20.30;74.00
9965;DHT22;5023;53.554;9.964;2023-05-27T19:19:54;20.20;74.80
9965;DHT22;5023;53.554;9.964;2023-05-27T19:24:56;20.10;75.60
9965;DHT22;5023;53.554;9.964;2023-05-27T19:29:59;19.90;76.40
9965;DHT22;5023;53.554;9.964;2023-05-27T19:35:03;19.80;77.50
9965;DHT22;5023;53.554;9.964;2023-05-27T19:40:06;19.70;78.20
9965;DHT22;5023;53.554;9.964;2023-05-27T19:45:09;19.60;79.30
9965;DHT22;5023;53.554;9.964;2023-05-27T19:50:12;19.50;81.90
9965;DHT22;5023;53.554;9.964;2023-05-27T19:55:15;19.50;84.80
9965;DHT22;5023;53.554;9.964;2023-05-27T20:00:17;19.40;87.70
9965;DHT22;5023;53.554;9.964;2023-05-27T20:05:21;19.30;90.60
9965;DHT22;5023;53.554;9.964;2023-05-27T20:10:25;19.20;92.10
9965;DHT22;5023;53.554;9.964;2023-05-27T20:15:27;19.00;94.70
9965;DHT22;5023;53.554;9.964;2023-05-27T20:20:31;18.90;97.00
9965;DHT22;5023;53.554;9.964;2023-05-27T20:25:36;18.90;99.00
9965;DHT22;5023;53.554;9.964;2023-05-27T20:30:39;18.80;99.90
9965;DHT22;5023;53.554;9.964;2023-05-27T20:35:42;18.70;99.90
9965;DHT22;5023;53.554;9.964;2023-05-27T20:40:44;18.40;99.90
9965;DHT22;5023;53.554;9.964;2023-05-27T20:45:47;18.30;99.90
9965;DHT22;5023;53.554;9.964;2023-05-27T20:50:50;18.30;99.90
9965;DHT22;5023;53.554;9.964;2023-05-27T20:55:53;18.10;99.90
9965;DHT22;5023;53.554;9.964;2023-05-27T21:00:55;17.90;99.90
9965;DHT22;5023;53.554;9.964;2023-05-27T21:05:58;17.80;99.90
9965;DHT22;5023;53.554;9.964;2023-05-27T21:11:01;17.70;99.90
9965;DHT22;5023;53.554;9.964;2023-05-27T21:16:03;17.70;99.90
9965;DHT22;5023;53.554;9.964;2023-05-27T21:21:07;17.60;99.90
9965;DHT22;5023;53.554;9.964;2023-05-27T21:26:11;17.50;99.90
9965;DHT22;5023;53.554;9.964;2023-05-27T21:31:13;17.40;99.90
9965;DHT22;5023;53.554;9.964;2023-05-27T21:36:18;17.30;99.90
9965;DHT22;5023;53.554;9.964;2023-05-27T21:41:20;17.30;99.90
9965;DHT22;5023;53.554;9.964;2023-05-27T21:46:22;17.40;99.90
9965;DHT22;5023;53.554;9.964;2023-05-27T21:51:26;17.20;99.90
9965;DHT22;5023;53.554;9.964;2023-05-27T21:56:28;17.10;99.90
9965;DHT22;5023;53.554;9.964;2023-05-27T22:01:31;17.10;99.90
9965;DHT22;5023;53.554;9.964;2023-05-27T22:06:39;17.00;99.90
9965;DHT22;5023;53.554;9.964;2023-05-27T22:11:51;17.00;99.90
9965;DHT22;5023;53.554;9.964;2023-05-27T22:16:53;16.90;99.90
9965;DHT22;5023;53.554;9.964;2023-05-27T22:21:57;16.80;99.90
9965;DHT22;5023;53.554;9.964;2023-05-27T22:27:01;16.80;99.90
9965;DHT22;5023;53.554;9.964;2023-05-27T22:32:05;16.70;99.90
9965;DHT22;5023;53.554;9.964;2023-05-27T22:37:09;16.50;99.90
9965;DHT22;5023;53.554;9.964;2023-05-27T22:42:11;16.40;99.90
9965;DHT22;5023;53.554;9.964;2023-05-27T22:47:13;16.30;99.90
9965;DHT22;5023;53.554;9.964;2023-05-27T22:52:17;16.30;99.90
9965;DHT22;5023;53.554;9.964;2023-05-27T22:57:26;16.20;99.90
9965;DHT22;5023;53.554;9.964;2023-05-27T23:02:28;16.20;99.90
9965;DHT22;5023;53.554;9.964;2023-05-27T23:07:32;16.20;99.90
9965;DHT22;5023;53.554;9.964;2023-05-27T23:12:35;16.20;99.90
9965;DHT22;5023;53.554;9.964;2023-05-27T23:17:36;16.20;99.90
9965;DHT22;5023;53.554;9.964;2023-05-27T23:22:40;16.20;99.90
9965;DHT22;5023;53.554;9.964;2023-05-27T23:27:42;16.20;99.90
9965;DHT22;5023;53.554;9.964;2023-05-27T23:32:44;16.30;99.90
9965;DHT22;5023;53.554;9.964;2023-05-27T23:37:53;16.30;99.90
9965;DHT22;5023;53.554;9.964;2023-05-27T23:42:55;16.20;99.90
9965;DHT22;5023;53.554;9.964;2023-05-27T23:47:57;16.00;99.90
9965;DHT22;5023;53.554;9.964;2023-05-27T23:53:00;16.10;99.90
9965;DHT22;5023;53.554;9.964;2023-05-27T23:58:02;16.00;99.90
